Wednesday, November 26, 2014
16:17 UTC
  |  Log In   |  Register Free
Airport Search:

Henderson Field Airport
(KACZ)

Henderson Field Airport Diagram
No Airport Diagram Available

FAA data valid effective November 13, 2014 - January 08, 2015 (unless otherwise noted).

 
 
 
 
 
 
 
 
 
 
 
 
 
 

Current Aviation Weather for Henderson Field Airport (KACZ)

METAR data is unavailable for ACZ. The nearest METAR location is at KDPL (17 nm NE from ACZ).

The most recent METAR observation for KDPL was updated at: 1513
METAR Summary (Translated METAR)
KDPL
261455Z AUTO 35015G19KT 10SM OVC013 08/07 A2987 RMK AO2 P0004 60026 T00770070
(17 nm NE from KACZ)
KOAJ
261455Z AUTO 35011G17KT 8SM VCTS BKN008 BKN018 OVC027 08/06 A2982 RMK AO1 TSB18E36B42 P0034 60054 52024
(20.4 nm NE from KACZ)
TAF Summary (Translated TAF)
KOAJ
(20.9 nm SE from KDPL)
261401Z 2614/2712 33012G20KT 4SM -RA OVC005 FM261700 32015G20KT P6SM VCSH SCT007 OVC020 FM262300 29005KT P6SM SCT025 BKN050 AMD LTD TO CLD VIS AND WIND
  Airport Weather Conditions for KACZ

Current weather conditions are
not available for ACZ


The nearest NOAA weather station
is at DPL, (17 nm NE from ACZ)
  
 Current Weather at DPL
46° F
Light Rain
North winds at 12.7 mph
DPL NOAA Radar

Pressure: 29.87 in
Humidity: 95%
Wind: from the North at 12.7 gusting to 21.9 MPH (11 gusting to 19 KT)
Dew Point: 44.6°F
Visibility: 10.00 mi


Airport Weather Forecast for KACZ

Translated METAR and TAF for KDPL
Translated METAR for KDPL (1612 UTC 26 November 2014)
found at http://aviationweather.gov/adds/metars/
 
METAR text: KDPL 261555Z AUTO 34011G19KT 10SM -RA OVC013 08/07 A2987 RMK AO2 P0001 T00770070
Conditions at: KDPL (KENANSVILLE/DUPL, NC, US) observed 1555 UTC 26 November 2014
Temperature: 7.7°C (46°F)
Dewpoint: 7.0°C (45°F) [RH = 95%]
Pressure (altimeter): 29.87 inches Hg (1011.6 mb)
Winds: from the NNW (340 degrees) at 13 MPH (11 knots; 5.7 m/s)
gusting to 22 MPH (19 knots; 9.9 m/s)
Visibility: 10 or more miles (16+ km)
Ceiling: 1300 feet AGL
Clouds: overcast cloud deck at 1300 feet AGL
Weather: -RA  (light rain)
Translated TAF for KDPL

There is no translated TAF available for this airport

Find All Airport Services Find A Hotel Find A Rental Car Find A Golf Course Find A Restaurant $100 Hamburger



FBO's on the Field
FBO Company Facility Photos Services Transportation Aviation Fuel Prices: Prices include tax
Catering Weather Repair Courtesy Rental Type 100LL JetA JetA+ MOGAS 8087
 
Henderson Field

This FBO has not yet been rated
FS:Phillips 66
Last Updated: Oct-24
Login to update fuel prices
SS:
Contact Henderson FieldMore FBO Information
 
Add another FBO Facility Photos Catering Weather Repair Courtesy Rental Type 100LL JetA JetA+ MOGAS 8087
Services Transportation Aviation Fuel Prices: Prices include tax


model-print
model-print
model-print
model-print